English version
lugares datos climáticos artículos

datos de Mairena del Aljarafe, Sevilla, España
Año Mes Dia Mostrar

  Fecha       hora        Temp.ext.    Hum.ext.  Dir.Viento   Vel.Viento  Presion al NM   T.int. Prec.hoy 

   28-02-2020    14:20      22.2º(+2.6)     38%         -         0.0 km/h    1019.2 hpa     22.7º    0.0 mm
   28-02-2020    14:15      22.2º(+2.8)     38%         -         0.0 km/h    1019.2 hpa     22.7º    0.0 mm
   28-02-2020    14:10      22.0º(+2.5)     41%         -         0.0 km/h    1019.4 hpa     22.7º    0.0 mm
   28-02-2020    14:05      22.0º(+2.6)     40%         -         0.0 km/h    1019.6 hpa     22.7º    0.0 mm
   28-02-2020    14:00      22.0º(+2.7)     38%         -         0.0 km/h    1019.6 hpa     22.7º    0.0 mm
   28-02-2020    13:55      21.9º(+2.7)     39%         -         0.0 km/h    1019.7 hpa     22.7º    0.0 mm
   28-02-2020    13:50      21.7º(+2.8)     40%         -         0.0 km/h    1019.7 hpa     22.7º    0.0 mm
   28-02-2020    13:45      21.4º(+3.0)     41%         -         0.0 km/h    1020.0 hpa     22.7º    0.0 mm
   28-02-2020    13:40      21.3º(+3.1)     40%      315(NW)      1.6 km/h    1020.1 hpa     22.8º    0.0 mm
   28-02-2020    13:35      21.1º(+3.0)     42%         -         0.0 km/h    1020.2 hpa     22.8º    0.0 mm
   28-02-2020    13:30      20.7º(+2.5)     42%         -         0.0 km/h    1020.3 hpa     22.8º    0.0 mm
   28-02-2020    13:25      20.7º(+2.8)     42%         -         0.0 km/h    1020.3 hpa     22.8º    0.0 mm
   28-02-2020    13:20      20.6º(+2.9)     43%         -         0.0 km/h    1020.3 hpa     22.8º    0.0 mm
   28-02-2020    13:15      20.3º(+2.5)     43%         -         0.0 km/h    1020.4 hpa     22.8º    0.0 mm
   28-02-2020    13:10      20.1º(+2.2)     43%         -         0.0 km/h    1020.5 hpa     22.8º    0.0 mm
   28-02-2020    13:05      19.9º(+2.2)     44%         -         0.0 km/h    1020.5 hpa     22.8º    0.0 mm
   28-02-2020    13:00      19.8º(+2.2)     43%         -         0.0 km/h    1020.6 hpa     22.8º    0.0 mm
   28-02-2020    12:55      19.4º(+1.9)     45%         -         0.0 km/h    1020.7 hpa     22.8º    0.0 mm
   28-02-2020    12:50      19.0º(+1.5)     46%         -         0.0 km/h    1020.7 hpa     22.8º    0.0 mm
   28-02-2020    12:45      18.6º(+1.3)     47%      090 (E)      1.6 km/h    1020.8 hpa     22.8º    0.0 mm
   28-02-2020    12:40      18.3º(+1.2)     49%      090 (E)      3.2 km/h    1020.8 hpa     22.8º    0.0 mm
   28-02-2020    12:35      18.2º(+1.1)     48%      090 (E)      4.8 km/h    1020.8 hpa     22.8º    0.0 mm
   28-02-2020    12:30      18.3º(+1.3)     49%      067(NE)      4.8 km/h    1020.8 hpa     22.8º    0.0 mm
   28-02-2020    12:25      18.3º(+1.2)     50%      045(NE)      3.2 km/h    1020.9 hpa     22.9º    0.0 mm
   28-02-2020    12:20      18.1º(+1.0)     50%      045(NE)      3.2 km/h    1021.0 hpa     22.9º    0.0 mm
   28-02-2020    12:15      18.1º(+1.4)     50%      045(NE)      3.2 km/h    1021.1 hpa     22.9º    0.0 mm
   28-02-2020    12:10      18.0º(+1.6)     50%      067(NE)      3.2 km/h    1021.3 hpa     22.9º    0.0 mm
   28-02-2020    12:05      17.8º(+1.6)     51%      067(NE)      3.2 km/h    1021.3 hpa     23.1º    0.0 mm
   28-02-2020    12:00      17.5º(+1.4)     52%      045(NE)      3.2 km/h    1021.3 hpa     23.1º    0.0 mm
   28-02-2020    11:55      17.4º(+1.5)     51%      045(NE)      4.8 km/h    1021.4 hpa     23.1º    0.0 mm
   28-02-2020    11:50      17.3º(+1.5)     52%      045(NE)      3.2 km/h    1021.4 hpa     23.1º    0.0 mm
   28-02-2020    11:45      17.2º(+1.5)     53%      067(NE)      3.2 km/h    1021.4 hpa     23.1º    0.0 mm
   28-02-2020    11:40      16.8º(+1.5)     54%      067(NE)      4.8 km/h    1021.4 hpa     23.1º    0.0 mm
   28-02-2020    11:35      16.6º(+1.5)     55%      045(NE)      4.8 km/h    1021.5 hpa     23.1º    0.0 mm
   28-02-2020    11:30      16.4º(+1.5)     56%      022 (N)      4.8 km/h    1021.6 hpa     23.1º    0.0 mm
   28-02-2020    11:25      16.2º(+1.4)     56%      067(NE)      6.4 km/h    1021.5 hpa     23.1º    0.0 mm
   28-02-2020    11:20      16.1º(+1.4)     57%      067(NE)      4.8 km/h    1021.5 hpa     23.1º    0.0 mm
   28-02-2020    11:15      15.8º(+1.4)     58%      067(NE)      4.8 km/h    1021.4 hpa     23.1º    0.0 mm
   28-02-2020    11:10      15.7º(+1.5)     57%      045(NE)      8.0 km/h    1021.4 hpa     23.1º    0.0 mm
   28-02-2020    11:05      15.6º(+1.7)     59%      045(NE)      6.4 km/h    1021.3 hpa     23.1º    0.0 mm
   28-02-2020    11:00      15.3º(+1.4)     59%      045(NE)      8.0 km/h    1021.3 hpa     23.2º    0.0 mm
   28-02-2020    10:55      15.1º(+1.0)     60%      045(NE)      8.0 km/h    1021.2 hpa     23.2º    0.0 mm
   28-02-2020    10:50      14.8º(+0.9)     61%      045(NE)      4.8 km/h    1021.1 hpa     23.2º    0.0 mm
   28-02-2020    10:45      14.5º(+0.4)     61%      045(NE)      8.0 km/h    1021.1 hpa     23.2º    0.0 mm
   28-02-2020    10:40      14.4º(-0.1)     61%      090 (E)      4.8 km/h    1021.0 hpa     23.2º    0.0 mm
   28-02-2020    10:35      14.2º(-0.1)     62%      045(NE)      8.0 km/h    1021.0 hpa     23.2º    0.0 mm
   28-02-2020    10:30      14.1º(-0.1)     62%      090 (E)      6.4 km/h    1021.0 hpa     23.2º    0.0 mm
   28-02-2020    10:25      13.8º(-0.1)     62%      045(NE)      8.0 km/h    1020.9 hpa     23.2º    0.0 mm
   28-02-2020    10:20      13.7º(-0.0)     63%      067(NE)      8.0 km/h    1020.9 hpa     23.2º    0.0 mm
   28-02-2020    10:15      13.5º(+0.0)     63%      045(NE)      6.4 km/h    1020.9 hpa     23.2º    0.0 mm
   28-02-2020    10:10      13.4º(+0.0)     63%      045(NE)      6.4 km/h    1021.1 hpa     23.2º    0.0 mm
   28-02-2020    10:05      13.3º(-0.0)     64%      045(NE)      6.4 km/h    1021.0 hpa     23.2º    0.0 mm
   28-02-2020    10:00      13.2º(+0.1)     64%      090 (E)      6.4 km/h    1021.1 hpa     23.2º    0.0 mm
   28-02-2020    09:55      13.0º(+0.3)     64%      045(NE)      8.0 km/h    1021.0 hpa     23.2º    0.0 mm
   28-02-2020    09:50      12.9º(+0.4)     65%      045(NE)      6.4 km/h    1020.9 hpa     23.2º    0.0 mm
   28-02-2020    09:45      12.7º(+0.3)     65%      045(NE)      8.0 km/h    1021.0 hpa     23.2º    0.0 mm
   28-02-2020    09:40      12.7º(+0.1)     66%      067(NE)      6.4 km/h    1020.8 hpa     23.1º    0.0 mm
   28-02-2020    09:35      12.6º(+0.2)     66%      045(NE)      6.4 km/h    1020.9 hpa     23.1º    0.0 mm
   28-02-2020    09:30      12.3º(+0.1)     67%      045(NE)      4.8 km/h    1020.9 hpa     23.1º    0.0 mm
   28-02-2020    09:25      12.2º(+0.3)     68%      045(NE)      4.8 km/h    1020.9 hpa     23.1º    0.0 mm
   28-02-2020    09:20      12.1º(+0.4)     68%      045(NE)      4.8 km/h    1021.1 hpa     23.1º    0.0 mm
   28-02-2020    09:15      12.0º(+0.4)     68%      067(NE)      3.2 km/h    1021.1 hpa     23.1º    0.0 mm
   28-02-2020    09:10      12.0º(+0.7)     68%      067(NE)      4.8 km/h    1021.1 hpa     23.1º    0.0 mm
   28-02-2020    09:05      11.9º(+0.7)     68%      045(NE)      3.2 km/h    1021.1 hpa     23.1º    0.0 mm
   28-02-2020    09:00      11.8º(+0.9)     68%      067(NE)      1.6 km/h    1020.9 hpa     23.1º    0.0 mm
   28-02-2020    08:55      11.8º(+1.0)     69%      067(NE)      3.2 km/h    1020.8 hpa     23.1º    0.0 mm
   28-02-2020    08:50      11.7º(+1.0)     69%      045(NE)      3.2 km/h    1020.9 hpa     23.1º    0.0 mm
   28-02-2020    08:45      11.6º(+1.1)     69%      090 (E)      6.4 km/h    1020.8 hpa     23.1º    0.0 mm
   28-02-2020    08:40      11.6º(+1.3)     69%      090 (E)      4.8 km/h    1020.7 hpa     22.9º    0.0 mm
   28-02-2020    08:35      11.4º(+1.2)     68%      067(NE)      3.2 km/h    1020.8 hpa     22.9º    0.0 mm
   28-02-2020    08:30        - º(----)      -%         -          -  km/h    1020.8 hpa     22.9º    0.0 mm
   28-02-2020    08:25        - º(----)      -%         -          -  km/h    1020.8 hpa     22.8º    0.0 mm
   28-02-2020    08:20        - º(----)      -%         -          -  km/h    1020.7 hpa     22.9º    0.0 mm
   28-02-2020    08:15        - º(----)      -%         -          -  km/h    1020.8 hpa     22.8º    0.0 mm
   28-02-2020    08:10        - º(----)      -%         -          -  km/h    1020.8 hpa     22.8º    0.0 mm
   28-02-2020    08:05        - º(----)      -%         -          -  km/h    1020.8 hpa     22.8º    0.0 mm
   28-02-2020    08:00        - º(----)      -%         -          -  km/h    1020.7 hpa     22.8º    0.0 mm
   28-02-2020    07:55        - º(----)      -%         -          -  km/h    1020.6 hpa     22.8º    0.0 mm
   28-02-2020    07:50        - º(----)      -%         -          -  km/h    1020.6 hpa     22.8º    0.0 mm
   28-02-2020    07:45        - º(----)      -%         -          -  km/h    1020.7 hpa     22.8º    0.0 mm
   28-02-2020    07:40        - º(----)      -%         -          -  km/h    1020.7 hpa     22.7º    0.0 mm
   28-02-2020    07:35        - º(----)      -%         -          -  km/h    1020.7 hpa     22.7º    0.0 mm
   28-02-2020    07:30        - º(----)      -%         -          -  km/h    1020.7 hpa     22.7º    0.0 mm
   28-02-2020    07:25        - º(----)      -%         -          -  km/h    1020.7 hpa     22.7º    0.0 mm
   28-02-2020    07:20        - º(----)      -%         -          -  km/h    1020.8 hpa     22.7º    0.0 mm
   28-02-2020    07:15        - º(----)      -%         -          -  km/h    1020.8 hpa     22.7º    0.0 mm
   28-02-2020    07:10        - º(----)      -%         -          -  km/h    1020.8 hpa     22.8º    0.0 mm
   28-02-2020    07:05      12.1º(+2.1)     64%         -          -  km/h    1020.7 hpa     22.6º    0.0 mm
   28-02-2020    07:00      12.1º(+2.1)     64%      067(NE)      6.4 km/h    1020.8 hpa     22.3º    0.0 mm
   28-02-2020    06:55      12.2º(+2.1)     64%      067(NE)      4.8 km/h    1020.9 hpa     22.3º    0.0 mm
   28-02-2020    06:50      12.0º(+1.9)     65%      045(NE)      6.4 km/h    1020.9 hpa     22.2º    0.0 mm
   28-02-2020    06:45      11.9º(+1.8)     65%      045(NE)      1.6 km/h    1020.9 hpa     22.1º    0.0 mm
   28-02-2020    06:40      11.9º(+1.7)     65%      045(NE)      1.6 km/h    1021.0 hpa     22.0º    0.0 mm
   28-02-2020    06:35      11.9º(+1.6)     65%      045(NE)      1.6 km/h    1021.1 hpa     21.9º    0.0 mm
   28-02-2020    06:30      11.9º(+1.3)     65%      045(NE)      1.6 km/h    1021.1 hpa     21.8º    0.0 mm
   28-02-2020    06:25      11.9º(+1.2)     65%      045(NE)      3.2 km/h    1021.0 hpa     21.8º    0.0 mm
   28-02-2020    06:20      12.0º(+1.2)     64%      045(NE)      3.2 km/h    1020.9 hpa     21.8º    0.0 mm
   28-02-2020    06:15      12.0º(+1.1)     64%      045(NE)      3.2 km/h    1020.9 hpa     21.8º    0.0 mm
   28-02-2020    06:10      12.1º(+1.2)     64%      045(NE)      3.2 km/h    1020.8 hpa     21.8º    0.0 mm
   28-02-2020    06:05      12.1º(+1.2)     64%      067(NE)      3.2 km/h    1020.8 hpa     21.9º    0.0 mm
   28-02-2020    06:00      12.2º(+1.1)     63%      067(NE)      3.2 km/h    1020.7 hpa     21.9º    0.0 mm
   28-02-2020    05:55      12.2º(+1.0)     62%      067(NE)      3.2 km/h    1020.6 hpa     21.9º    0.0 mm
   28-02-2020    05:50      12.4º(+1.2)     62%      067(NE)      4.8 km/h    1020.5 hpa     21.9º    0.0 mm
   28-02-2020    05:45      12.6º(+1.4)     61%      067(NE)      4.8 km/h    1020.6 hpa     21.9º    0.0 mm
   28-02-2020    05:40      12.7º(+1.5)     60%      045(NE)      4.8 km/h    1020.4 hpa     21.9º    0.0 mm
   28-02-2020    05:35      12.8º(+1.5)     60%      067(NE)      4.8 km/h    1020.5 hpa     21.9º    0.0 mm
   28-02-2020    05:30      12.9º(+1.5)     59%      045(NE)      4.8 km/h    1020.4 hpa     21.9º    0.0 mm
   28-02-2020    05:25      13.1º(+1.7)     59%      045(NE)      4.8 km/h    1020.3 hpa     22.0º    0.0 mm
   28-02-2020    05:20      13.3º(+1.8)     58%      045(NE)      6.4 km/h    1020.4 hpa     22.0º    0.0 mm
   28-02-2020    05:15      13.4º(+1.8)     57%      045(NE)      4.8 km/h    1020.4 hpa     22.0º    0.0 mm
   28-02-2020    05:10      13.6º(+2.0)     57%      045(NE)      6.4 km/h    1020.4 hpa     22.0º    0.0 mm
   28-02-2020    05:05      13.7º(+2.1)     56%      045(NE)      4.8 km/h    1020.4 hpa     22.0º    0.0 mm
   28-02-2020    05:00      13.8º(+2.3)     56%      045(NE)      8.0 km/h    1020.3 hpa     22.0º    0.0 mm
   28-02-2020    04:55      13.9º(+2.4)     56%      045(NE)      8.0 km/h    1020.3 hpa     22.0º    0.0 mm
   28-02-2020    04:50      13.9º(+2.3)     56%      045(NE)      6.4 km/h    1020.4 hpa     22.0º    0.0 mm
   28-02-2020    04:45      13.9º(+2.3)     55%      045(NE)      6.4 km/h    1020.5 hpa     22.1º    0.0 mm
   28-02-2020    04:40      13.9º(+2.2)     55%      045(NE)      6.4 km/h    1020.6 hpa     22.1º    0.0 mm
   28-02-2020    04:35      13.9º(+2.3)     55%      045(NE)      4.8 km/h    1020.8 hpa     22.1º    0.0 mm
   28-02-2020    04:30      14.0º(+2.4)     55%      045(NE)      6.4 km/h    1020.8 hpa     22.1º    0.0 mm
   28-02-2020    04:25      14.0º(+2.4)     55%      045(NE)      6.4 km/h    1020.8 hpa     22.1º    0.0 mm
   28-02-2020    04:20      14.1º(+2.5)     55%      045(NE)      4.8 km/h    1020.9 hpa     22.1º    0.0 mm
   28-02-2020    04:15      14.1º(+2.4)     55%      045(NE)      6.4 km/h    1020.9 hpa     22.1º    0.0 mm
   28-02-2020    04:10      14.2º(+2.5)     54%      045(NE)      6.4 km/h    1021.1 hpa     22.1º    0.0 mm
   28-02-2020    04:05      14.3º(+2.6)     54%      045(NE)      6.4 km/h    1021.2 hpa     22.2º    0.0 mm
   28-02-2020    04:00      14.3º(+2.5)     53%      045(NE)      6.4 km/h    1021.3 hpa     22.2º    0.0 mm
   28-02-2020    03:55      14.3º(+2.5)     53%      045(NE)      4.8 km/h    1021.5 hpa     22.2º    0.0 mm
   28-02-2020    03:50      14.4º(+2.6)     53%      045(NE)      6.4 km/h    1021.5 hpa     22.2º    0.0 mm
   28-02-2020    03:45      14.4º(+2.7)     53%      045(NE)      4.8 km/h    1021.6 hpa     22.2º    0.0 mm
   28-02-2020    03:40      14.5º(+2.8)     53%      067(NE)      4.8 km/h    1021.7 hpa     22.2º    0.0 mm
   28-02-2020    03:35      14.6º(+3.0)     52%      045(NE)      4.8 km/h    1021.7 hpa     22.2º    0.0 mm
   28-02-2020    03:30      14.6º(+2.9)     52%      045(NE)      4.8 km/h    1021.8 hpa     22.3º    0.0 mm
   28-02-2020    03:25      14.7º(+2.9)     52%      045(NE)      4.8 km/h    1021.9 hpa     22.3º    0.0 mm
   28-02-2020    03:20      14.8º(+2.7)     52%      067(NE)      3.2 km/h    1022.1 hpa     22.3º    0.0 mm
   28-02-2020    03:15      14.9º(+2.2)     51%      067(NE)      3.2 km/h    1022.2 hpa     22.3º    0.0 mm
   28-02-2020    03:10      15.0º(+2.2)     51%      067(NE)      3.2 km/h    1022.3 hpa     22.3º    0.0 mm
   28-02-2020    03:05      15.1º(+2.3)     50%      067(NE)      3.2 km/h    1022.4 hpa     22.3º    0.0 mm
   28-02-2020    03:00      15.2º(+2.3)     50%      045(NE)      3.2 km/h    1022.4 hpa     22.3º    0.0 mm
   28-02-2020    02:55      15.3º(+2.3)     50%      022 (N)      4.8 km/h    1022.4 hpa     22.4º    0.0 mm
   28-02-2020    02:50      15.2º(+2.1)     50%      045(NE)      4.8 km/h    1022.4 hpa     22.4º    0.0 mm
   28-02-2020    02:45      15.2º(+2.0)     50%      067(NE)      4.8 km/h    1022.4 hpa     22.4º    0.0 mm
   28-02-2020    02:40      15.2º(+2.0)     50%      045(NE)      4.8 km/h    1022.5 hpa     22.4º    0.0 mm
   28-02-2020    02:35      15.2º(+1.9)     50%      022 (N)      4.8 km/h    1022.5 hpa     22.4º    0.0 mm
   28-02-2020    02:30      15.3º(+2.0)     50%      045(NE)      3.2 km/h    1022.6 hpa     22.4º    0.0 mm
   28-02-2020    02:25      15.3º(+1.9)     50%      045(NE)      3.2 km/h    1022.7 hpa     22.4º    0.0 mm
   28-02-2020    02:20      15.3º(+1.7)     50%      045(NE)      3.2 km/h    1022.9 hpa     22.4º    0.0 mm
   28-02-2020    02:15      15.3º(+1.6)     50%      045(NE)      3.2 km/h    1022.7 hpa     22.4º    0.0 mm
   28-02-2020    02:10      15.4º(+1.7)     50%      045(NE)      3.2 km/h    1022.8 hpa     22.4º    0.0 mm
   28-02-2020    02:05      15.3º(+1.6)     50%      045(NE)      3.2 km/h    1022.8 hpa     22.4º    0.0 mm
   28-02-2020    02:00      15.4º(+1.7)     50%      022 (N)      3.2 km/h    1022.7 hpa     22.4º    0.0 mm
   28-02-2020    01:55      15.4º(+1.7)     49%      022 (N)      3.2 km/h    1022.7 hpa     22.4º    0.0 mm
   28-02-2020    01:50      15.4º(+1.7)     49%      045(NE)      3.2 km/h    1022.6 hpa     22.6º    0.0 mm
   28-02-2020    01:45      15.5º(+1.7)     49%      045(NE)      4.8 km/h    1022.6 hpa     22.6º    0.0 mm
   28-02-2020    01:40      15.4º(+1.6)     49%      045(NE)      4.8 km/h    1022.7 hpa     22.6º    0.0 mm
   28-02-2020    01:35      15.4º(+1.5)     50%      045(NE)      4.8 km/h    1022.6 hpa     22.6º    0.0 mm
   28-02-2020    01:30      15.4º(+1.4)     50%      045(NE)      4.8 km/h    1022.7 hpa     22.7º    0.0 mm
   28-02-2020    01:25      15.4º(+1.3)     50%      022 (N)      3.2 km/h    1022.7 hpa     22.7º    0.0 mm
   28-02-2020    01:20      15.3º(+1.2)     50%      022 (N)      3.2 km/h    1022.8 hpa     22.7º    0.0 mm
   28-02-2020    01:15      15.3º(+1.2)     51%      022 (N)      3.2 km/h    1022.8 hpa     22.7º    0.0 mm
   28-02-2020    01:10      15.2º(+1.0)     51%      045(NE)      3.2 km/h    1022.7 hpa     22.8º    0.0 mm
   28-02-2020    01:05      15.2º(+1.0)     51%      022 (N)      3.2 km/h    1022.7 hpa     22.8º    0.0 mm
   28-02-2020    01:00      15.3º(+1.0)     51%      022 (N)      3.2 km/h    1022.8 hpa     22.8º    0.0 mm
   28-02-2020    00:55      15.3º(----)     51%      045(NE)      3.2 km/h    1022.8 hpa     22.8º    0.0 mm
   28-02-2020    00:50      15.3º(----)     51%      045(NE)      3.2 km/h    1022.7 hpa     22.8º    0.0 mm
   28-02-2020    00:45      15.2º(----)     52%      045(NE)      3.2 km/h    1022.6 hpa     22.9º    0.0 mm
   28-02-2020    00:40      15.3º(----)     52%      022 (N)      3.2 km/h    1022.6 hpa     22.9º    0.0 mm
   28-02-2020    00:35      15.3º(----)     52%      045(NE)      3.2 km/h    1022.7 hpa     22.9º    0.0 mm
   28-02-2020    00:30      15.3º(----)     51%      045(NE)      3.2 km/h    1022.6 hpa     23.1º    0.0 mm
   28-02-2020    00:25      15.4º(----)     51%      022 (N)      3.2 km/h    1022.7 hpa     23.1º    0.0 mm
   28-02-2020    00:20      15.4º(----)     51%      000 (N)      3.2 km/h    1022.7 hpa     23.1º    0.0 mm
   28-02-2020    00:15      15.6º(----)     51%      045(NE)      3.2 km/h    1022.7 hpa     23.1º    0.0 mm
   28-02-2020    00:10      15.7º(----)     50%      000 (N)      3.2 km/h    1022.8 hpa     23.1º    0.0 mm
   28-02-2020    00:05      15.8º(----)     50%      000 (N)      4.8 km/h    1022.8 hpa     23.1º    0.0 mm
   28-02-2020    00:00      16.0º(----)     49%      022 (N)      3.2 km/h    1022.8 hpa     23.1º    0.0 mm